Time;durP1;ratioP1;P1;durP2;ratioP2;P2;SDS_P1;SDS_P2;PMS_P1;PMS_P2;Temp;Humidity;BMP_temperature;BMP_pressure;BME280_temperature;BME280_humidity;BME280_pressure;Samples;Min_cycle;Max_cycle;Signal;HPM_P1;HPM_P2
2022/09/10 00:00:58;;;;;;;4.10;3.80;;;19.50;99.90;;;;;;6236780;23;20020;-73
2022/09/10 00:03:24;;;;;;;4.05;3.63;;;19.50;99.90;;;;;;6234031;23;20008;-73
2022/09/10 00:05:50;;;;;;;4.18;3.53;;;19.50;99.90;;;;;;6233735;23;20462;-73
2022/09/10 00:08:17;;;;;;;5.95;3.97;;;19.50;99.90;;;;;;6233659;23;20065;-74
2022/09/10 00:10:48;;;;;;;6.07;4.28;;;19.40;99.90;;;;;;6233526;23;20000;-73
2022/09/10 00:13:17;;;;;;;4.93;3.75;;;19.40;99.90;;;;;;6233083;23;20027;-73
2022/09/10 00:15:51;;;;;;;5.15;4.10;;;19.40;99.90;;;;;;6228340;23;20027;-73
2022/09/10 00:18:21;;;;;;;5.25;4.18;;;19.40;99.90;;;;;;6233078;23;20417;-73
2022/09/10 00:20:49;;;;;;;4.50;4.10;;;19.40;99.90;;;;;;6235829;23;20000;-74
2022/09/10 00:23:16;;;;;;;4.80;4.40;;;19.40;99.90;;;;;;6234031;23;20008;-73
2022/09/10 00:25:42;;;;;;;6.28;4.35;;;19.40;99.90;;;;;;6235482;23;20008;-73
2022/09/10 00:28:08;;;;;;;9.65;4.40;;;19.40;99.90;;;;;;6233078;23;20074;-73
2022/09/10 00:30:42;;;;;;;5.05;4.55;;;19.30;99.90;;;;;;6234177;23;20421;-72
2022/09/10 00:33:08;;;;;;;6.95;4.70;;;19.30;99.90;;;;;;6255313;22;20035;-74
2022/09/10 00:35:35;;;;;;;5.25;4.05;;;19.30;99.90;;;;;;6261946;22;20074;-72
2022/09/10 00:38:01;;;;;;;4.55;4.13;;;19.40;99.90;;;;;;6263422;22;20007;-72
2022/09/10 00:40:27;;;;;;;7.60;4.90;;;19.50;99.90;;;;;;6260691;22;20035;-72
2022/09/10 00:42:53;;;;;;;5.22;4.13;;;19.50;99.90;;;;;;6264553;22;20004;-72
2022/09/10 00:45:22;;;;;;;5.45;4.15;;;19.50;99.90;;;;;;6260094;22;20437;-72
2022/09/10 00:47:51;;;;;;;4.68;4.28;;;19.50;99.90;;;;;;6258669;22;20059;-72
2022/09/10 00:50:22;;;;;;;4.43;4.03;;;19.50;99.90;;;;;;6264706;22;20003;-72
2022/09/10 00:52:51;;;;;;;5.10;4.22;;;19.60;99.90;;;;;;6266052;22;20003;-72
2022/09/10 00:55:17;;;;;;;6.40;4.22;;;19.50;99.90;;;;;;6263918;22;20008;-72
2022/09/10 00:57:46;;;;;;;3.92;3.63;;;19.60;99.90;;;;;;6263766;22;20083;-71
2022/09/10 01:00:14;;;;;;;4.47;4.07;;;19.60;99.90;;;;;;6265400;22;20038;-72
2022/09/10 01:02:40;;;;;;;5.65;3.88;;;19.50;99.90;;;;;;6264518;22;20000;-72
2022/09/10 01:05:08;;;;;;;4.20;3.90;;;19.60;99.90;;;;;;6262881;22;20011;-71
2022/09/10 01:07:35;;;;;;;5.82;4.03;;;19.50;99.90;;;;;;6262870;22;20003;-72
2022/09/10 01:10:06;;;;;;;5.47;3.70;;;19.50;99.90;;;;;;6258189;22;20015;-72
2022/09/10 01:12:41;;;;;;;4.20;3.85;;;19.50;99.90;;;;;;6263894;22;20525;-65
2022/09/10 01:15:23;;;;;;;5.75;3.65;;;19.50;99.90;;;;;;6260274;22;20027;-65
2022/09/10 01:18:02;;;;;;;5.03;4.00;;;19.50;99.90;;;;;;6257781;22;20451;-65
2022/09/10 01:20:45;;;;;;;5.28;4.85;;;19.50;99.90;;;;;;6263025;22;20004;-65
2022/09/10 01:23:40;;;;;;;5.25;4.70;;;19.50;99.90;;;;;;6264807;22;20463;-65
2022/09/10 01:26:21;;;;;;;5.88;4.65;;;19.50;99.90;;;;;;6262183;22;20015;-65
2022/09/10 01:29:07;;;;;;;7.00;4.32;;;19.50;99.90;;;;;;6263702;22;20020;-65
2022/09/10 01:31:37;;;;;;;4.85;4.43;;;19.50;99.90;;;;;;6262614;22;19999;-66
2022/09/10 01:34:29;;;;;;;7.50;4.80;;;19.40;99.90;;;;;;6260253;22;20007;-65
2022/09/10 01:37:03;;;;;;;5.07;4.63;;;19.40;99.90;;;;;;6222009;22;20061;-65
2022/09/10 01:39:29;;;;;;;5.72;5.20;;;19.40;99.90;;;;;;6264514;22;20034;-65
2022/09/10 01:41:55;;;;;;;8.02;5.10;;;19.40;99.90;;;;;;6263514;22;20031;-65
2022/09/10 01:44:49;;;;;;;5.57;5.07;;;19.40;99.90;;;;;;6260111;22;20698;-66
2022/09/10 01:47:30;;;;;;;5.95;5.35;;;19.40;99.90;;;;;;6257040;22;20026;-66
2022/09/10 01:50:11;;;;;;;6.35;4.97;;;19.40;99.90;;;;;;6262299;22;20004;-66
2022/09/10 01:52:42;;;;;;;8.35;6.10;;;19.40;99.90;;;;;;6262822;22;20000;-65
2022/09/10 01:55:23;;;;;;;6.05;5.55;;;19.30;99.90;;;;;;6260475;22;20083;-65
2022/09/10 01:58:12;;;;;;;5.15;4.75;;;19.30;99.90;;;;;;6264364;22;20026;-66
2022/09/10 02:00:41;;;;;;;6.00;4.97;;;19.30;99.90;;;;;;6251110;22;20114;-65
2022/09/10 02:03:16;;;;;;;5.05;4.65;;;19.30;99.90;;;;;;6262165;22;20003;-66
2022/09/10 02:05:43;;;;;;;5.50;4.97;;;19.30;99.90;;;;;;6260304;22;20004;-66
2022/09/10 02:08:17;;;;;;;6.15;4.78;;;19.30;99.90;;;;;;6263508;22;20083;-65
2022/09/10 02:10:58;;;;;;;6.72;4.78;;;19.30;99.90;;;;;;6257376;22;20424;-65
2022/09/10 02:13:26;;;;;;;5.70;4.25;;;19.20;99.90;;;;;;6264189;22;20428;-65
2022/09/10 02:15:52;;;;;;;7.13;5.03;;;19.20;99.90;;;;;;6261476;22;19999;-65
2022/09/10 02:18:20;;;;;;;6.70;4.55;;;19.10;99.90;;;;;;6255494;22;20023;-65
2022/09/10 02:20:47;;;;;;;6.45;4.50;;;19.20;99.90;;;;;;6260802;22;20004;-65
2022/09/10 02:23:17;;;;;;;6.65;4.30;;;19.20;99.90;;;;;;6264294;22;20079;-66
2022/09/10 02:25:43;;;;;;;5.05;4.20;;;19.10;99.90;;;;;;6265219;22;20451;-65
2022/09/10 02:28:09;;;;;;;6.95;4.53;;;19.20;99.90;;;;;;6260557;22;20012;-66
2022/09/10 02:30:35;;;;;;;4.10;3.80;;;19.10;99.90;;;;;;6261711;22;20079;-65
2022/09/10 02:33:02;;;;;;;4.90;4.50;;;19.20;99.90;;;;;;6262329;22;20027;-66
2022/09/10 02:35:27;;;;;;;4.30;3.90;;;19.10;99.90;;;;;;6263051;22;20087;-65
2022/09/10 02:37:53;;;;;;;4.47;4.05;;;19.10;99.90;;;;;;6261595;22;20039;-65
2022/09/10 02:40:19;;;;;;;5.20;4.63;;;19.10;99.90;;;;;;6260116;22;20026;-66
2022/09/10 02:42:45;;;;;;;4.80;4.40;;;19.00;99.90;;;;;;6261958;22;20035;-65
2022/09/10 02:45:12;;;;;;;4.82;4.32;;;19.00;99.90;;;;;;6261549;22;20029;-66
2022/09/10 02:47:38;;;;;;;6.95;4.63;;;19.00;99.90;;;;;;6258549;22;20015;-65
2022/09/10 02:50:05;;;;;;;5.95;4.30;;;18.90;99.90;;;;;;6260915;22;19992;-66
2022/09/10 02:52:32;;;;;;;6.03;3.95;;;19.00;99.90;;;;;;6265400;22;20106;-65
2022/09/10 02:54:58;;;;;;;4.32;3.90;;;18.90;99.90;;;;;;6262854;22;20002;-65
2022/09/10 02:57:25;;;;;;;6.55;4.10;;;19.00;99.90;;;;;;6261175;22;20008;-65
2022/09/10 02:59:52;;;;;;;3.67;3.40;;;18.90;99.90;;;;;;6264607;22;20008;-65
2022/09/10 03:02:19;;;;;;;4.38;3.95;;;19.00;99.90;;;;;;6260946;22;20015;-65
2022/09/10 03:04:45;;;;;;;4.75;3.58;;;18.90;99.90;;;;;;6262535;22;20011;-65
2022/09/10 03:07:15;;;;;;;5.47;4.32;;;18.90;99.90;;;;;;6260495;22;20022;-66
2022/09/10 03:09:41;;;;;;;4.20;3.90;;;18.80;99.90;;;;;;6266062;22;20376;-65
2022/09/10 03:12:07;;;;;;;5.95;4.07;;;18.80;99.90;;;;;;6262436;22;20000;-65
2022/09/10 03:14:33;;;;;;;4.63;3.95;;;18.80;99.90;;;;;;6264401;22;20457;-65
2022/09/10 03:16:59;;;;;;;4.28;3.67;;;18.80;99.90;;;;;;6263888;22;20004;-65
2022/09/10 03:19:24;;;;;;;4.43;4.13;;;18.80;99.90;;;;;;6256192;22;20014;-65
2022/09/10 03:21:51;;;;;;;4.25;3.75;;;18.90;99.90;;;;;;6260644;22;20008;-65
2022/09/10 03:24:17;;;;;;;3.95;3.40;;;18.80;99.90;;;;;;6261842;22;20056;-72
2022/09/10 03:26:43;;;;;;;4.30;3.88;;;18.80;99.90;;;;;;6262453;22;20012;-72
2022/09/10 03:29:09;;;;;;;3.75;3.45;;;18.70;99.90;;;;;;6257152;22;20011;-71
2022/09/10 03:31:35;;;;;;;12.73;4.15;;;18.70;99.90;;;;;;6261384;22;19996;-71
2022/09/10 03:34:01;;;;;;;4.90;3.83;;;18.70;99.90;;;;;;6262823;22;20019;-71
2022/09/10 03:36:30;;;;;;;5.45;3.92;;;18.70;99.90;;;;;;6263696;22;20361;-72
2022/09/10 03:38:56;;;;;;;3.97;3.53;;;18.60;99.90;;;;;;6261430;22;20714;-72
2022/09/10 03:41:22;;;;;;;3.95;3.50;;;18.60;99.90;;;;;;6264538;22;20012;-71
2022/09/10 03:43:48;;;;;;;4.47;3.72;;;18.60;99.90;;;;;;6265138;22;20000;-72
2022/09/10 03:46:14;;;;;;;3.15;2.92;;;18.60;99.90;;;;;;6262596;22;20014;-71
2022/09/10 03:48:42;;;;;;;3.90;3.35;;;18.60;99.90;;;;;;6258406;22;20026;-72
2022/09/10 03:51:09;;;;;;;3.95;2.72;;;18.60;99.90;;;;;;6261986;22;20010;-72
2022/09/10 03:53:35;;;;;;;3.80;2.85;;;18.50;99.90;;;;;;6261382;22;20014;-71
2022/09/10 03:56:02;;;;;;;3.83;3.25;;;18.50;99.90;;;;;;6263079;22;20012;-72
2022/09/10 03:58:27;;;;;;;4.40;3.67;;;18.50;99.90;;;;;;6264693;22;20006;-72
2022/09/10 04:00:53;;;;;;;11.02;3.17;;;18.40;99.90;;;;;;6263681;22;20049;-84
2022/09/10 04:03:19;;;;;;;5.00;3.63;;;18.40;99.90;;;;;;6260997;22;20081;-72
2022/09/10 04:05:45;;;;;;;3.80;3.13;;;18.40;99.90;;;;;;6262092;22;20004;-72
2022/09/10 04:08:12;;;;;;;6.55;2.92;;;18.40;99.90;;;;;;6261198;22;20015;-72
2022/09/10 04:10:40;;;;;;;3.33;2.95;;;18.30;99.90;;;;;;6264858;22;20012;-71
2022/09/10 04:13:05;;;;;;;5.28;2.90;;;18.30;99.90;;;;;;6260895;22;20551;-72
2022/09/10 04:15:31;;;;;;;4.03;2.75;;;18.30;99.90;;;;;;6260036;22;20086;-74
2022/09/10 04:17:57;;;;;;;3.70;2.60;;;18.30;99.90;;;;;;6260622;22;20008;-72
2022/09/10 04:20:24;;;;;;;3.50;2.42;;;18.30;99.90;;;;;;6258622;22;20003;-72
2022/09/10 04:22:50;;;;;;;2.88;2.40;;;18.40;99.90;;;;;;6261362;22;20094;-72
2022/09/10 04:25:17;;;;;;;2.33;2.05;;;18.30;99.90;;;;;;6263644;22;20027;-72
2022/09/10 04:27:44;;;;;;;2.78;1.77;;;18.30;99.90;;;;;;6262613;22;20340;-72
2022/09/10 04:30:10;;;;;;;4.15;2.50;;;18.20;99.90;;;;;;6262061;22;20388;-71
2022/09/10 04:32:36;;;;;;;4.03;2.00;;;18.20;99.90;;;;;;6260997;22;20012;-72
2022/09/10 04:35:03;;;;;;;2.45;1.92;;;18.20;99.90;;;;;;6265493;22;20068;-72
2022/09/10 04:37:29;;;;;;;1.80;1.50;;;18.20;99.90;;;;;;6260585;22;19996;-72
2022/09/10 04:39:56;;;;;;;2.95;1.80;;;18.10;99.90;;;;;;6262605;22;20078;-71
2022/09/10 04:42:21;;;;;;;2.05;1.70;;;18.10;99.90;;;;;;6262871;22;20008;-72
2022/09/10 04:44:48;;;;;;;5.50;1.90;;;18.00;99.90;;;;;;6266824;22;20340;-71
2022/09/10 04:47:14;;;;;;;2.35;1.60;;;17.90;99.90;;;;;;6263920;22;20858;-71
2022/09/10 04:49:39;;;;;;;5.15;2.13;;;17.90;99.90;;;;;;6265663;22;20038;-72
2022/09/10 04:52:05;;;;;;;3.90;1.60;;;17.90;99.90;;;;;;6258740;22;20000;-72
2022/09/10 04:54:32;;;;;;;1.77;1.67;;;17.90;99.90;;;;;;6264273;22;20014;-71
2022/09/10 04:56:59;;;;;;;5.95;1.45;;;18.00;99.90;;;;;;6265915;22;19996;-73
2022/09/10 04:59:26;;;;;;;2.03;1.30;;;18.00;99.90;;;;;;6260093;22;20008;-72
2022/09/10 05:01:52;;;;;;;3.67;1.83;;;17.90;99.90;;;;;;6262793;22;20014;-72
2022/09/10 05:04:18;;;;;;;2.15;1.23;;;17.90;99.90;;;;;;6261204;22;20000;-71
2022/09/10 05:06:43;;;;;;;2.33;1.30;;;17.90;99.90;;;;;;6266659;22;20003;-72
2022/09/10 05:09:10;;;;;;;1.83;1.20;;;17.80;99.90;;;;;;6259245;22;20004;-71
2022/09/10 05:11:36;;;;;;;2.42;1.20;;;17.80;99.90;;;;;;6262769;22;20007;-72
2022/09/10 05:14:03;;;;;;;3.22;1.40;;;17.70;99.90;;;;;;6261917;22;20004;-72
2022/09/10 05:16:29;;;;;;;4.82;1.30;;;17.70;99.90;;;;;;6264531;22;20006;-72
2022/09/10 05:18:55;;;;;;;1.75;1.20;;;17.60;99.90;;;;;;6261961;22;19999;-71
2022/09/10 05:21:21;;;;;;;2.05;1.20;;;17.60;99.90;;;;;;6260670;22;20008;-71
2022/09/10 05:23:47;;;;;;;1.88;0.95;;;17.70;99.90;;;;;;6259804;22;20000;-72
2022/09/10 05:26:13;;;;;;;3.03;1.40;;;17.70;99.90;;;;;;6264173;22;20027;-71
2022/09/10 05:28:38;;;;;;;2.67;1.50;;;17.70;99.90;;;;;;6262872;22;20007;-71
2022/09/10 05:31:06;;;;;;;3.00;1.30;;;17.80;99.90;;;;;;6265898;22;20070;-71
2022/09/10 05:33:31;;;;;;;2.05;1.45;;;17.80;99.90;;;;;;6258471;22;20246;-72
2022/09/10 05:35:57;;;;;;;2.65;1.20;;;17.90;99.90;;;;;;6264671;22;20381;-72
2022/09/10 05:38:23;;;;;;;1.38;1.15;;;18.00;99.90;;;;;;6260779;22;20695;-71
2022/09/10 05:40:49;;;;;;;2.72;0.90;;;18.10;99.90;;;;;;6261414;22;19996;-72
2022/09/10 05:43:15;;;;;;;1.77;1.13;;;18.10;99.90;;;;;;6264169;22;20396;-71
2022/09/10 05:45:41;;;;;;;2.03;1.30;;;18.10;99.90;;;;;;6261390;22;20085;-71
2022/09/10 05:48:06;;;;;;;1.67;1.00;;;18.20;99.90;;;;;;6263659;22;20020;-71
2022/09/10 05:50:32;;;;;;;1.60;1.15;;;18.20;99.90;;;;;;6263551;22;20014;-71
2022/09/10 05:52:57;;;;;;;1.40;1.20;;;18.20;99.90;;;;;;6257449;22;20015;-71
2022/09/10 05:55:23;;;;;;;1.30;1.20;;;18.20;99.90;;;;;;6261549;22;20443;-70
2022/09/10 05:57:49;;;;;;;1.40;1.00;;;18.30;99.90;;;;;;6263185;22;20007;-73
2022/09/10 06:00:14;;;;;;;2.33;1.40;;;18.30;99.90;;;;;;6261810;22;20007;-73
2022/09/10 06:02:41;;;;;;;6.15;1.42;;;18.40;99.90;;;;;;6259482;22;20057;-73
2022/09/10 06:05:07;;;;;;;3.35;1.33;;;18.40;99.90;;;;;;6262568;22;20037;-72
2022/09/10 06:07:33;;;;;;;1.35;1.25;;;18.30;99.90;;;;;;6260682;22;20065;-74
2022/09/10 06:10:01;;;;;;;2.47;1.80;;;18.20;99.90;;;;;;6259825;22;20447;-73
2022/09/10 06:12:27;;;;;;;1.13;1.02;;;18.20;99.90;;;;;;6263245;22;20008;-66
2022/09/10 06:14:52;;;;;;;2.63;1.30;;;18.20;99.90;;;;;;6254897;22;20405;-68
2022/09/10 06:17:18;;;;;;;3.55;1.63;;;18.20;99.90;;;;;;6259067;22;20090;-66
2022/09/10 06:19:47;;;;;;;2.30;1.27;;;18.30;99.90;;;;;;6257270;22;20472;-69
2022/09/10 06:22:13;;;;;;;1.50;0.82;;;18.30;99.90;;;;;;6256243;22;20004;-68
2022/09/10 06:24:39;;;;;;;6.68;1.10;;;18.40;99.90;;;;;;6260194;22;20004;-67
2022/09/10 06:27:05;;;;;;;2.55;1.10;;;18.40;99.90;;;;;;6263799;22;20061;-67
2022/09/10 06:29:37;;;;;;;4.22;1.20;;;18.50;99.90;;;;;;6263440;22;20003;-68
2022/09/10 06:32:03;;;;;;;;;;;18.40;99.90;;;;;;6264395;22;20018;-67
2022/09/10 06:34:28;;;;;;;4.25;0.77;;;18.50;99.90;;;;;;6264139;22;19899;-65
2022/09/10 06:36:56;;;;;;;1.55;0.98;;;18.60;99.90;;;;;;6264543;22;20657;-65
2022/09/10 06:39:21;;;;;;;2.90;1.10;;;18.60;99.90;;;;;;6260261;22;20086;-64
2022/09/10 06:41:47;;;;;;;3.40;0.80;;;18.60;99.90;;;;;;6264709;22;20054;-64
2022/09/10 06:44:12;;;;;;;3.10;0.95;;;18.60;99.90;;;;;;6264024;22;20011;-65
2022/09/10 06:46:38;;;;;;;2.92;1.00;;;18.60;99.90;;;;;;6260677;22;20012;-65
2022/09/10 06:49:05;;;;;;;7.55;0.90;;;18.60;99.90;;;;;;6265432;22;20057;-65
2022/09/10 06:51:34;;;;;;;1.67;1.00;;;18.50;99.90;;;;;;6264302;22;20704;-66
2022/09/10 06:54:01;;;;;;;0.65;0.65;;;18.60;99.90;;;;;;6258267;22;20031;-66
2022/09/10 06:56:27;;;;;;;2.30;0.80;;;18.70;99.90;;;;;;6263539;22;20000;-66
2022/09/10 06:58:53;;;;;;;4.63;1.35;;;18.70;99.90;;;;;;6263715;22;20021;-66
2022/09/10 07:01:22;;;;;;;1.08;1.02;;;18.80;99.90;;;;;;6260962;22;20008;-65
2022/09/10 07:03:52;;;;;;;6.60;1.20;;;18.90;99.90;;;;;;6262546;22;20044;-65
2022/09/10 07:06:18;;;;;;;0.98;0.95;;;19.00;99.90;;;;;;6262511;22;20012;-66
2022/09/10 07:08:43;;;;;;;1.90;1.27;;;19.10;99.90;;;;;;6259259;22;20020;-66
2022/09/10 07:11:12;;;;;;;1.30;1.20;;;19.10;99.90;;;;;;6262486;22;20406;-66
2022/09/10 07:13:39;;;;;;;2.80;1.60;;;19.20;99.90;;;;;;6262387;22;20038;-65
2022/09/10 07:16:05;;;;;;;2.15;1.40;;;19.30;99.90;;;;;;6260287;22;19999;-67
2022/09/10 07:18:32;;;;;;;4.10;1.85;;;19.40;99.90;;;;;;6262108;22;20014;-68
2022/09/10 07:21:08;;;;;;;1.52;1.42;;;19.60;99.90;;;;;;6262464;22;20000;-65
2022/09/10 07:23:34;;;;;;;3.08;1.60;;;19.70;99.90;;;;;;6258665;22;20685;-68
2022/09/10 07:26:08;;;;;;;3.58;1.30;;;19.80;99.90;;;;;;6260633;22;20041;-67
2022/09/10 07:28:35;;;;;;;3.50;1.30;;;19.90;99.90;;;;;;6263671;22;20015;-67
2022/09/10 07:31:28;;;;;;;3.03;1.42;;;19.90;99.90;;;;;;6255908;22;20699;-67
2022/09/10 07:33:55;;;;;;;4.10;1.73;;;19.90;99.90;;;;;;6260349;22;20023;-67
2022/09/10 07:36:21;;;;;;;3.20;1.77;;;20.00;99.90;;;;;;6261786;22;20007;-67
2022/09/10 07:38:51;;;;;;;2.40;1.77;;;20.10;99.90;;;;;;6264577;22;20146;-66
2022/09/10 07:41:17;;;;;;;2.20;2.00;;;20.10;99.90;;;;;;6257694;22;20008;-66
2022/09/10 07:43:43;;;;;;;2.22;1.65;;;20.10;99.90;;;;;;6264730;22;20476;-66
2022/09/10 07:46:19;;;;;;;2.25;1.95;;;20.20;99.90;;;;;;6262395;22;20004;-66
2022/09/10 07:48:47;;;;;;;2.83;1.88;;;20.20;99.90;;;;;;6260769;22;20020;-66
2022/09/10 07:51:17;;;;;;;4.28;1.83;;;20.30;99.90;;;;;;6260835;22;19999;-66
2022/09/10 07:53:43;;;;;;;2.53;2.33;;;20.40;99.90;;;;;;6259170;22;20035;-65
2022/09/10 07:56:09;;;;;;;1.95;1.83;;;20.50;99.90;;;;;;6261647;22;20314;-65
2022/09/10 07:58:37;;;;;;;10.70;2.50;;;20.40;99.90;;;;;;6264260;22;19996;-65
2022/09/10 08:01:07;;;;;;;3.65;1.92;;;20.50;99.90;;;;;;6262122;22;20086;-65
2022/09/10 08:03:33;;;;;;;3.35;2.05;;;20.60;99.90;;;;;;6260456;22;20031;-65
2022/09/10 08:06:00;;;;;;;3.75;1.88;;;20.60;99.90;;;;;;6262922;22;20073;-65
2022/09/10 08:08:34;;;;;;;2.10;2.00;;;20.60;99.90;;;;;;6258395;22;20008;-65
2022/09/10 08:11:08;;;;;;;2.38;2.10;;;20.60;99.90;;;;;;6263787;22;20041;-65
2022/09/10 08:13:35;;;;;;;2.05;1.88;;;20.60;99.90;;;;;;6258012;22;20008;-65
2022/09/10 08:16:08;;;;;;;1.60;1.50;;;20.60;99.90;;;;;;6266025;22;20528;-65
2022/09/10 08:18:34;;;;;;;4.53;2.15;;;20.60;99.90;;;;;;6265137;22;20026;-65
2022/09/10 08:21:01;;;;;;;2.17;1.98;;;20.70;99.90;;;;;;6261554;22;20011;-65
2022/09/10 08:23:27;;;;;;;2.08;1.77;;;20.70;99.90;;;;;;6259961;22;20690;-65
2022/09/10 08:25:54;;;;;;;2.05;1.65;;;20.80;99.90;;;;;;6258765;22;20007;-65
2022/09/10 08:28:21;;;;;;;2.63;1.52;;;20.70;99.90;;;;;;6262110;22;21063;-65
2022/09/10 08:31:07;;;;;;;1.98;1.88;;;20.80;99.90;;;;;;6262352;22;20007;-65
2022/09/10 08:33:34;;;;;;;2.95;1.60;;;20.80;99.90;;;;;;6262972;22;20022;-65
2022/09/10 08:36:00;;;;;;;1.80;1.70;;;20.90;99.90;;;;;;6264159;22;20028;-65
2022/09/10 08:38:38;;;;;;;1.90;1.35;;;21.00;99.90;;;;;;6263724;22;20028;-65
2022/09/10 08:41:22;;;;;;;1.60;1.45;;;21.00;99.90;;;;;;6264793;22;20034;-65
2022/09/10 08:44:08;;;;;;;1.60;1.50;;;21.10;99.90;;;;;;6264075;22;20003;-65
2022/09/10 08:46:40;;;;;;;6.57;1.50;;;21.10;99.90;;;;;;6264599;22;20003;-65
2022/09/10 08:49:18;;;;;;;1.95;1.10;;;21.20;99.90;;;;;;6260358;22;20445;-65
2022/09/10 08:51:52;;;;;;;4.25;1.00;;;21.30;99.90;;;;;;6265162;22;20832;-66
2022/09/10 08:54:26;;;;;;;2.75;1.08;;;21.50;99.90;;;;;;6266484;22;20034;-65
2022/09/10 08:56:55;;;;;;;1.13;1.08;;;21.70;99.90;;;;;;6257941;22;20053;-65
2022/09/10 08:59:44;;;;;;;3.10;1.23;;;21.70;99.90;;;;;;6264005;22;20004;-66
2022/09/10 09:02:32;;;;;;;0.88;0.88;;;21.80;99.90;;;;;;6263702;22;20139;-66
2022/09/10 09:05:05;;;;;;;4.18;1.00;;;22.00;99.90;;;;;;6264046;22;20024;-66
2022/09/10 09:07:38;;;;;;;3.60;0.70;;;22.10;99.90;;;;;;6262470;22;20498;-66
2022/09/10 09:10:35;;;;;;;5.13;0.88;;;22.10;99.90;;;;;;6263906;22;20111;-66
2022/09/10 09:13:25;;;;;;;2.55;1.00;;;22.20;99.90;;;;;;6264570;22;19999;-65
2022/09/10 09:15:54;;;;;;;0.55;0.55;;;22.20;99.90;;;;;;6262963;22;20081;-65
2022/09/10 09:18:49;;;;;;;2.70;0.80;;;22.20;99.90;;;;;;6213192;22;20043;-65
2022/09/10 09:21:16;;;;;;;0.57;0.50;;;22.10;99.90;;;;;;6211226;22;20073;-65
2022/09/10 09:23:57;;;;;;;2.70;0.50;;;22.00;99.90;;;;;;6168548;23;20016;-65
2022/09/10 09:26:28;;;;;;;;;;;22.10;99.90;;;;;;6190792;22;20007;-71
2022/09/10 09:29:06;;;;;;;1.92;0.63;;;22.20;99.90;;;;;;6193629;22;19919;-71
2022/09/10 09:31:39;;;;;;;2.58;0.70;;;22.40;99.90;;;;;;6229769;22;20260;-71
2022/09/10 09:34:13;;;;;;;0.70;0.32;;;22.50;99.90;;;;;;6229906;22;20193;-72
2022/09/10 09:36:55;;;;;;;1.63;0.45;;;22.50;99.90;;;;;;6231924;22;20071;-71
2022/09/10 09:40:01;;;;;;;0.70;0.50;;;22.60;99.90;;;;;;6210750;22;20004;-72
2022/09/10 09:42:55;;;;;;;0.75;0.50;;;22.60;99.90;;;;;;6190942;22;20008;-73
2022/09/10 09:45:33;;;;;;;1.20;0.40;;;22.50;99.90;;;;;;6201966;22;20016;-74
2022/09/10 09:47:59;;;;;;;0.60;0.30;;;22.30;99.90;;;;;;6217758;22;20046;-74
2022/09/10 09:50:27;;;;;;;0.50;0.30;;;22.20;99.90;;;;;;6201712;22;20035;-76
2022/09/10 09:52:57;;;;;;;0.30;0.30;;;22.10;99.90;;;;;;6220221;22;20016;-74
2022/09/10 09:55:33;;;;;;;0.38;0.20;;;22.10;99.90;;;;;;6228988;22;20004;-73
2022/09/10 09:58:21;;;;;;;0.55;0.43;;;22.10;99.90;;;;;;6231612;22;20004;-73
2022/09/10 10:00:51;;;;;;;0.60;0.30;;;22.10;99.90;;;;;;6235377;23;20008;-74
2022/09/10 10:03:24;;;;;;;0.30;0.30;;;22.10;99.90;;;;;;6234026;22;20008;-73
2022/09/10 10:05:59;;;;;;;0.35;0.20;;;22.20;99.90;;;;;;6230966;22;20004;-66
2022/09/10 10:08:53;;;;;;;3.97;0.60;;;22.30;99.90;;;;;;6172901;22;20011;-67
2022/09/10 10:11:20;;;;;;;1.17;0.30;;;22.30;99.90;;;;;;6198191;22;20020;-67
2022/09/10 10:13:50;;;;;;;0.47;0.20;;;22.30;99.90;;;;;;6189072;22;20019;-66
2022/09/10 10:16:25;;;;;;;2.38;0.45;;;22.40;99.90;;;;;;6200851;22;20019;-66
2022/09/10 10:18:51;;;;;;;0.93;0.30;;;22.40;99.90;;;;;;6222000;22;20016;-66
2022/09/10 10:21:21;;;;;;;0.68;0.40;;;22.60;99.90;;;;;;6213123;22;20035;-66
2022/09/10 10:23:47;;;;;;;1.83;0.40;;;22.70;99.90;;;;;;6207649;22;20776;-65
2022/09/10 10:26:21;;;;;;;7.90;0.70;;;22.80;99.90;;;;;;6228631;23;20000;-65
2022/09/10 10:28:55;;;;;;;0.20;0.17;;;22.80;99.90;;;;;;6215051;22;20024;-65
2022/09/10 10:31:31;;;;;;;0.70;0.40;;;22.90;99.90;;;;;;6175362;22;20020;-66
2022/09/10 10:34:09;;;;;;;0.45;0.20;;;22.80;99.90;;;;;;6220445;22;20024;-65
2022/09/10 10:36:51;;;;;;;0.95;0.20;;;22.80;99.90;;;;;;6252317;22;20484;-65
2022/09/10 10:39:36;;;;;;;1.27;0.43;;;22.80;99.90;;;;;;6228328;22;20099;-65
2022/09/10 10:42:29;;;;;;;0.95;0.25;;;22.70;99.90;;;;;;6197407;22;20086;-65
2022/09/10 10:45:07;;;;;;;0.30;0.20;;;22.70;99.90;;;;;;6173388;22;20455;-65
2022/09/10 10:47:48;;;;;;;0.50;0.15;;;22.80;99.90;;;;;;6205673;22;20661;-65
2022/09/10 10:50:26;;;;;;;1.33;0.20;;;23.00;99.90;;;;;;6228914;22;20106;-66
2022/09/10 10:53:11;;;;;;;1.75;0.30;;;23.20;99.90;;;;;;6215282;22;20020;-66
2022/09/10 10:56:13;;;;;;;0.80;0.10;;;23.30;99.90;;;;;;6238052;23;20026;-65
2022/09/10 10:58:58;;;;;;;1.35;0.20;;;23.40;99.90;;;;;;6226901;22;20433;-65
2022/09/10 11:01:28;;;;;;;2.10;0.30;;;23.50;99.90;;;;;;6227152;22;20007;-64
2022/09/10 11:04:21;;;;;;;0.68;0.10;;;23.50;99.90;;;;;;6199888;22;20018;-65
2022/09/10 11:06:56;;;;;;;1.02;0.13;;;23.60;99.90;;;;;;6240309;22;20000;-66
2022/09/10 11:09:25;;;;;;;0.25;0.17;;;23.60;99.90;;;;;;6229147;23;20023;-66
2022/09/10 11:11:59;;;;;;;0.20;0.05;;;23.70;99.90;;;;;;6230178;23;20040;-67
2022/09/10 11:14:47;;;;;;;0.40;0.40;;;23.80;99.90;;;;;;6228342;23;20412;-66
2022/09/10 11:17:41;;;;;;;0.52;0.20;;;23.80;99.90;;;;;;6231960;23;20011;-67
2022/09/10 11:20:12;;;;;;;0.20;0.13;;;23.70;99.90;;;;;;6230714;23;20011;-67
2022/09/10 11:22:49;;;;;;;0.10;0.10;;;23.70;99.90;;;;;;6233677;23;20075;-67
2022/09/10 11:25:46;;;;;;;2.38;0.40;;;23.80;99.90;;;;;;6231831;23;20027;-67
2022/09/10 11:28:18;;;;;;;2.15;0.30;;;23.80;99.90;;;;;;6204311;23;20409;-67
2022/09/10 11:30:45;;;;;;;;;;;24.00;99.90;;;;;;6230559;23;20000;-67
2022/09/10 11:33:29;;;;;;;1.23;0.10;;;24.10;99.60;;;;;;6233126;22;19919;-68
2022/09/10 11:36:30;;;;;;;0.20;0.08;;;24.10;99.00;;;;;;6233248;23;20000;-69
2022/09/10 11:39:10;;;;;;;1.75;0.10;;;24.20;98.80;;;;;;6078611;23;20013;-79
2022/09/10 11:41:41;;;;;;;1.02;0.20;;;24.20;98.30;;;;;;6216875;23;20315;-77
2022/09/10 11:44:06;;;;;;;0.52;0.25;;;24.10;99.90;;;;;;6204696;23;20005;-77
2022/09/10 11:46:41;;;;;;;4.65;0.35;;;24.20;99.30;;;;;;6227713;23;20088;-79
2022/09/10 11:49:23;;;;;;;0.55;0.10;;;24.30;97.70;;;;;;6230165;23;20040;-78
2022/09/10 11:51:49;;;;;;;1.07;0.47;;;24.30;98.50;;;;;;6234237;23;20011;-71
2022/09/10 11:54:37;;;;;;;0.00;0.00;;;24.40;96.40;;;;;;6233686;23;20000;-69
2022/09/10 11:57:47;;;;;;;6.53;0.82;;;24.20;95.90;;;;;;6235243;23;20489;-71
2022/09/10 12:00:19;;;;;;;6.03;1.15;;;24.10;96.50;;;;;;6230343;23;20031;-70
2022/09/10 12:03:16;;;;;;;7.32;0.95;;;24.20;98.10;;;;;;6236676;23;20007;-71
2022/09/10 12:05:49;;;;;;;2.67;0.30;;;24.30;96.60;;;;;;6234275;23;20527;-69
2022/09/10 12:08:48;;;;;;;0.80;0.20;;;24.40;96.70;;;;;;6234646;23;20012;-69
2022/09/10 12:11:51;;;;;;;0.47;0.00;;;24.40;96.60;;;;;;6206915;23;20000;-69
2022/09/10 12:14:18;;;;;;;4.18;0.35;;;24.40;96.60;;;;;;6237001;23;20031;-68
2022/09/10 12:17:08;;;;;;;0.28;0.10;;;24.50;96.40;;;;;;6237049;23;20004;-68
2022/09/10 12:19:45;;;;;;;0.88;0.10;;;24.50;95.10;;;;;;6235135;23;20000;-69
2022/09/10 12:22:26;;;;;;;2.08;0.10;;;24.40;95.70;;;;;;6235656;23;20026;-70
2022/09/10 12:25:00;;;;;;;0.70;0.10;;;24.40;96.50;;;;;;6236553;23;20457;-69
2022/09/10 12:27:43;;;;;;;0.38;0.10;;;24.60;97.40;;;;;;6234951;23;20014;-69
2022/09/10 12:30:23;;;;;;;0.98;0.10;;;24.60;96.30;;;;;;6233514;23;20024;-73
2022/09/10 12:32:59;;;;;;;0.10;0.10;;;24.40;94.70;;;;;;6236855;23;20012;-71
2022/09/10 12:35:34;;;;;;;0.10;0.10;;;24.00;95.70;;;;;;6235349;23;20028;-72
2022/09/10 12:38:38;;;;;;;0.10;0.10;;;23.80;95.80;;;;;;6235811;23;20471;-66
2022/09/10 12:41:30;;;;;;;1.35;0.10;;;23.60;96.50;;;;;;6208444;23;20020;-67
2022/09/10 12:44:00;;;;;;;5.15;0.20;;;23.50;96.80;;;;;;6163027;23;20004;-66
2022/09/10 12:46:27;;;;;;;0.28;0.28;;;23.50;97.20;;;;;;6233928;23;20299;-66
2022/09/10 12:48:54;;;;;;;0.30;0.10;;;23.60;97.10;;;;;;6235592;23;20019;-66
2022/09/10 12:51:20;;;;;;;0.50;0.30;;;23.70;97.00;;;;;;6230242;23;20004;-65
2022/09/10 12:54:06;;;;;;;0.43;0.10;;;23.90;96.30;;;;;;6233121;23;20012;-67
2022/09/10 12:56:58;;;;;;;2.60;0.28;;;23.90;96.60;;;;;;6233604;23;20020;-66
2022/09/10 13:00:03;;;;;;;0.98;0.28;;;23.70;95.70;;;;;;6232972;23;20100;-66
2022/09/10 13:02:42;;;;;;;1.75;0.17;;;23.60;96.10;;;;;;6231580;23;20068;-67
2022/09/10 13:05:23;;;;;;;1.38;0.20;;;23.40;95.20;;;;;;6232720;23;20000;-68
2022/09/10 13:08:14;;;;;;;0.80;0.28;;;23.20;95.30;;;;;;6235441;23;20543;-68
2022/09/10 13:10:44;;;;;;;2.25;0.20;;;23.30;96.90;;;;;;6232007;23;20015;-67
2022/09/10 13:13:38;;;;;;;0.10;0.10;;;23.50;97.30;;;;;;6235161;23;20000;-70